Impacts TAF Board INFO
FOR SITUATIONAL AWARENESS. NOT TO BE USED FOR FLIGHT PLANNING PURPOSES.
IDs:

KPIT - Pittsburgh Intl, PA, US

Issued at 0855 UTC 20 Jan 2018
Updated at 0910 UTC 20 Jan 2018
Potential Impact None Slight Moderate High
Time0851Z 20/10Z 20/11Z 20/12Z 20/13Z 20/14Z 20/15Z 20/16Z 20/17Z 20/18Z 20/19Z 20/20Z 20/21Z 20/22Z>>
Type OBS PRVL PRVL PRVL PRVL PRVL PRVL PRVL PRVL PRVL PRVL PRVL PRVL PRVL
VIS 10 >6 >6 >6 >6 >6 >6 >6 >6 >6 >6 >6 >6 >6
CIG -- -- -- -- -- -- -- -- -- -- -- -- -- 25
Cover SCT SCT SCT SCT SCT SCT SCT SCT SCT SCT SCT SCT SCT BKN
FltCat VFR VFR VFR VFR VFR VFR VFR VFR VFR VFR VFR VFR VFR MVFR
WX -- -- -- -- -- -- -- -- -- -- -- -- -- --
WDir 220 220 220 220 220 220 220 220 220 220 220 220 220 240
WSpd 10 10 10 10 10 10 11 11 11 11 11 11 11 8
WGst -- -- -- -- -- -- 20 20 20 20 20 20 20 --

Raw TAF
KPIT 200855Z 2009/2112 22010KT P6SM SCT250 WS020/24045KT
  FM201500 22011G20KT P6SM SCT025
  FM202200 24008KT P6SM BKN025
  FM210000 23006KT P6SM OVC015


Raw METAR
KPIT 200851Z 22010KT 10SM SCT250 03/M06 A2996 RMK AO2 SLP160 T00281061 51006
KPIT 200751Z 22011G20KT 10SM FEW250 02/M07 A2995 RMK AO2 SLP159 T00221067
KPIT 200651Z 22011G20KT 10SM FEW250 03/M08 A2995 RMK AO2 SLP158 T00281078

METAR Board
Radar Display
Forecast Discussion

FOR SITUATIONAL AWARENESS. NOT TO BE USED FOR FLIGHT PLANNING PURPOSES.